sensor_id;sensor_type;location;lat;lon;timestamp;P1;durP1;ratioP1;P2;durP2;ratioP2
21420;SDS011;10871;50.144;8.428;2022-07-03T00:01:50;2.95;;;2.40;;
21420;SDS011;10871;50.144;8.428;2022-07-03T00:04:16;2.50;;;2.17;;
21420;SDS011;10871;50.144;8.428;2022-07-03T00:06:44;3.55;;;2.50;;
21420;SDS011;10871;50.144;8.428;2022-07-03T00:09:10;3.90;;;2.25;;
21420;SDS011;10871;50.144;8.428;2022-07-03T00:11:38;3.05;;;2.28;;
21420;SDS011;10871;50.144;8.428;2022-07-03T00:14:04;3.92;;;2.60;;
21420;SDS011;10871;50.144;8.428;2022-07-03T00:16:30;3.58;;;2.25;;
21420;SDS011;10871;50.144;8.428;2022-07-03T00:18:57;3.40;;;2.30;;
21420;SDS011;10871;50.144;8.428;2022-07-03T00:21:25;2.60;;;2.35;;
21420;SDS011;10871;50.144;8.428;2022-07-03T00:26:20;5.13;;;2.60;;
21420;SDS011;10871;50.144;8.428;2022-07-03T00:28:47;3.88;;;2.45;;
21420;SDS011;10871;50.144;8.428;2022-07-03T00:31:13;2.53;;;2.00;;
21420;SDS011;10871;50.144;8.428;2022-07-03T00:33:40;2.92;;;2.20;;
21420;SDS011;10871;50.144;8.428;2022-07-03T00:36:07;2.60;;;2.40;;
21420;SDS011;10871;50.144;8.428;2022-07-03T00:38:34;2.35;;;2.10;;
21420;SDS011;10871;50.144;8.428;2022-07-03T00:41:01;2.42;;;2.22;;
21420;SDS011;10871;50.144;8.428;2022-07-03T00:43:28;2.95;;;2.00;;
21420;SDS011;10871;50.144;8.428;2022-07-03T00:45:54;3.13;;;2.40;;
21420;SDS011;10871;50.144;8.428;2022-07-03T00:48:29;4.63;;;2.33;;
21420;SDS011;10871;50.144;8.428;2022-07-03T00:50:56;2.40;;;2.20;;
21420;SDS011;10871;50.144;8.428;2022-07-03T00:53:28;2.60;;;2.40;;
21420;SDS011;10871;50.144;8.428;2022-07-03T00:55:58;3.45;;;2.20;;
21420;SDS011;10871;50.144;8.428;2022-07-03T00:58:25;3.70;;;2.20;;
21420;SDS011;10871;50.144;8.428;2022-07-03T01:00:52;4.00;;;2.17;;
21420;SDS011;10871;50.144;8.428;2022-07-03T01:03:20;2.53;;;2.05;;
21420;SDS011;10871;50.144;8.428;2022-07-03T01:05:52;2.33;;;2.13;;
21420;SDS011;10871;50.144;8.428;2022-07-03T01:08:33;3.58;;;2.50;;
21420;SDS011;10871;50.144;8.428;2022-07-03T01:16:27;4.13;;;2.33;;
21420;SDS011;10871;50.144;8.428;2022-07-03T01:19:02;2.28;;;2.08;;
21420;SDS011;10871;50.144;8.428;2022-07-03T01:24:43;2.88;;;2.10;;
21420;SDS011;10871;50.144;8.428;2022-07-03T01:27:13;2.53;;;2.15;;
21420;SDS011;10871;50.144;8.428;2022-07-03T01:32:15;3.10;;;2.22;;
21420;SDS011;10871;50.144;8.428;2022-07-03T01:34:43;4.70;;;2.53;;
21420;SDS011;10871;50.144;8.428;2022-07-03T01:37:11;2.63;;;2.30;;
21420;SDS011;10871;50.144;8.428;2022-07-03T01:39:40;4.15;;;2.30;;
21420;SDS011;10871;50.144;8.428;2022-07-03T01:42:21;3.45;;;2.40;;
21420;SDS011;10871;50.144;8.428;2022-07-03T01:44:48;3.10;;;2.45;;
21420;SDS011;10871;50.144;8.428;2022-07-03T01:47:17;2.30;;;2.10;;
21420;SDS011;10871;50.144;8.428;2022-07-03T01:49:44;2.90;;;2.30;;
21420;SDS011;10871;50.144;8.428;2022-07-03T01:52:10;2.95;;;2.58;;
21420;SDS011;10871;50.144;8.428;2022-07-03T01:54:58;2.83;;;2.17;;
21420;SDS011;10871;50.144;8.428;2022-07-03T01:57:28;3.60;;;3.00;;
21420;SDS011;10871;50.144;8.428;2022-07-03T01:59:59;5.55;;;4.65;;
21420;SDS011;10871;50.144;8.428;2022-07-03T02:02:39;15.70;;;9.35;;
21420;SDS011;10871;50.144;8.428;2022-07-03T02:05:08;11.32;;;7.20;;
21420;SDS011;10871;50.144;8.428;2022-07-03T02:07:50;7.05;;;4.53;;
21420;SDS011;10871;50.144;8.428;2022-07-03T02:10:18;4.95;;;3.22;;
21420;SDS011;10871;50.144;8.428;2022-07-03T02:12:51;3.65;;;2.80;;
21420;SDS011;10871;50.144;8.428;2022-07-03T02:15:21;3.05;;;2.60;;
21420;SDS011;10871;50.144;8.428;2022-07-03T02:17:51;3.00;;;2.47;;
21420;SDS011;10871;50.144;8.428;2022-07-03T02:20:18;4.72;;;2.22;;
21420;SDS011;10871;50.144;8.428;2022-07-03T02:22:47;3.05;;;1.98;;
21420;SDS011;10871;50.144;8.428;2022-07-03T02:25:24;2.60;;;1.95;;
21420;SDS011;10871;50.144;8.428;2022-07-03T02:27:57;2.17;;;2.00;;
21420;SDS011;10871;50.144;8.428;2022-07-03T02:30:28;3.95;;;2.40;;
21420;SDS011;10871;50.144;8.428;2022-07-03T02:32:57;2.42;;;2.13;;
21420;SDS011;10871;50.144;8.428;2022-07-03T02:35:26;2.97;;;2.30;;
21420;SDS011;10871;50.144;8.428;2022-07-03T02:38:09;2.40;;;2.20;;
21420;SDS011;10871;50.144;8.428;2022-07-03T02:43:23;2.92;;;2.42;;
21420;SDS011;10871;50.144;8.428;2022-07-03T02:45:52;4.53;;;2.30;;
21420;SDS011;10871;50.144;8.428;2022-07-03T02:48:35;3.03;;;2.25;;
21420;SDS011;10871;50.144;8.428;2022-07-03T02:51:09;3.23;;;2.33;;
21420;SDS011;10871;50.144;8.428;2022-07-03T02:53:44;3.05;;;2.10;;
21420;SDS011;10871;50.144;8.428;2022-07-03T02:56:14;2.78;;;2.20;;
21420;SDS011;10871;50.144;8.428;2022-07-03T02:58:44;2.30;;;2.10;;
21420;SDS011;10871;50.144;8.428;2022-07-03T03:01:19;3.30;;;2.40;;
21420;SDS011;10871;50.144;8.428;2022-07-03T03:03:51;2.83;;;2.30;;
21420;SDS011;10871;50.144;8.428;2022-07-03T03:06:20;2.47;;;2.28;;
21420;SDS011;10871;50.144;8.428;2022-07-03T03:08:48;4.13;;;2.20;;
21420;SDS011;10871;50.144;8.428;2022-07-03T03:11:29;3.67;;;2.28;;
21420;SDS011;10871;50.144;8.428;2022-07-03T03:13:57;4.35;;;2.28;;
21420;SDS011;10871;50.144;8.428;2022-07-03T03:16:26;3.22;;;2.22;;
21420;SDS011;10871;50.144;8.428;2022-07-03T03:18:53;2.40;;;2.20;;
21420;SDS011;10871;50.144;8.428;2022-07-03T03:21:19;2.78;;;2.22;;
21420;SDS011;10871;50.144;8.428;2022-07-03T03:23:47;2.50;;;2.33;;
21420;SDS011;10871;50.144;8.428;2022-07-03T03:26:18;4.15;;;2.55;;
21420;SDS011;10871;50.144;8.428;2022-07-03T03:28:45;3.05;;;2.58;;
21420;SDS011;10871;50.144;8.428;2022-07-03T03:31:12;4.50;;;2.53;;
21420;SDS011;10871;50.144;8.428;2022-07-03T03:33:39;2.75;;;2.47;;
21420;SDS011;10871;50.144;8.428;2022-07-03T03:36:07;3.72;;;2.60;;
21420;SDS011;10871;50.144;8.428;2022-07-03T03:38:34;3.80;;;2.50;;
21420;SDS011;10871;50.144;8.428;2022-07-03T03:41:01;2.80;;;2.28;;
21420;SDS011;10871;50.144;8.428;2022-07-03T03:43:27;5.00;;;2.55;;
21420;SDS011;10871;50.144;8.428;2022-07-03T03:45:54;4.00;;;2.50;;
21420;SDS011;10871;50.144;8.428;2022-07-03T03:48:20;2.92;;;2.63;;
21420;SDS011;10871;50.144;8.428;2022-07-03T03:50:47;2.97;;;2.20;;
21420;SDS011;10871;50.144;8.428;2022-07-03T03:53:13;2.70;;;2.50;;
21420;SDS011;10871;50.144;8.428;2022-07-03T03:58:25;3.08;;;2.33;;
21420;SDS011;10871;50.144;8.428;2022-07-03T04:00:52;2.75;;;2.30;;
21420;SDS011;10871;50.144;8.428;2022-07-03T04:03:19;3.38;;;2.30;;
21420;SDS011;10871;50.144;8.428;2022-07-03T04:05:46;3.28;;;2.70;;
21420;SDS011;10871;50.144;8.428;2022-07-03T04:08:12;3.53;;;2.53;;
21420;SDS011;10871;50.144;8.428;2022-07-03T04:10:39;3.97;;;2.30;;
21420;SDS011;10871;50.144;8.428;2022-07-03T04:13:05;4.10;;;2.60;;
21420;SDS011;10871;50.144;8.428;2022-07-03T04:15:32;3.92;;;2.30;;
21420;SDS011;10871;50.144;8.428;2022-07-03T04:17:58;2.50;;;2.30;;
21420;SDS011;10871;50.144;8.428;2022-07-03T04:20:25;2.60;;;2.40;;
21420;SDS011;10871;50.144;8.428;2022-07-03T04:22:51;2.85;;;2.10;;
21420;SDS011;10871;50.144;8.428;2022-07-03T04:25:17;4.20;;;2.10;;
21420;SDS011;10871;50.144;8.428;2022-07-03T04:27:44;2.25;;;2.05;;
21420;SDS011;10871;50.144;8.428;2022-07-03T04:30:30;2.20;;;2.00;;
21420;SDS011;10871;50.144;8.428;2022-07-03T04:32:56;3.65;;;2.28;;
21420;SDS011;10871;50.144;8.428;2022-07-03T04:35:23;4.35;;;2.00;;
21420;SDS011;10871;50.144;8.428;2022-07-03T04:37:49;2.60;;;2.05;;
21420;SDS011;10871;50.144;8.428;2022-07-03T04:40:16;2.45;;;2.10;;
21420;SDS011;10871;50.144;8.428;2022-07-03T04:42:42;2.72;;;2.30;;
21420;SDS011;10871;50.144;8.428;2022-07-03T04:45:08;3.67;;;1.90;;
21420;SDS011;10871;50.144;8.428;2022-07-03T04:47:35;2.85;;;2.20;;
21420;SDS011;10871;50.144;8.428;2022-07-03T04:50:01;2.72;;;2.10;;
21420;SDS011;10871;50.144;8.428;2022-07-03T04:52:28;2.00;;;1.90;;
21420;SDS011;10871;50.144;8.428;2022-07-03T04:54:56;2.42;;;2.10;;
21420;SDS011;10871;50.144;8.428;2022-07-03T04:57:22;2.97;;;2.13;;
21420;SDS011;10871;50.144;8.428;2022-07-03T04:59:49;4.55;;;1.80;;
21420;SDS011;10871;50.144;8.428;2022-07-03T05:02:15;2.47;;;2.10;;
21420;SDS011;10871;50.144;8.428;2022-07-03T05:04:42;2.35;;;1.90;;
21420;SDS011;10871;50.144;8.428;2022-07-03T05:07:08;2.88;;;2.00;;
21420;SDS011;10871;50.144;8.428;2022-07-03T05:09:34;1.98;;;1.80;;
21420;SDS011;10871;50.144;8.428;2022-07-03T05:12:01;2.97;;;2.22;;
21420;SDS011;10871;50.144;8.428;2022-07-03T05:14:27;2.58;;;2.38;;
21420;SDS011;10871;50.144;8.428;2022-07-03T05:16:54;3.25;;;2.08;;
21420;SDS011;10871;50.144;8.428;2022-07-03T05:19:20;2.08;;;1.88;;
21420;SDS011;10871;50.144;8.428;2022-07-03T05:21:46;2.17;;;1.65;;
21420;SDS011;10871;50.144;8.428;2022-07-03T05:24:13;1.80;;;1.70;;
21420;SDS011;10871;50.144;8.428;2022-07-03T05:26:39;2.00;;;1.70;;
21420;SDS011;10871;50.144;8.428;2022-07-03T05:29:06;2.03;;;1.70;;
21420;SDS011;10871;50.144;8.428;2022-07-03T05:31:32;2.80;;;1.70;;
21420;SDS011;10871;50.144;8.428;2022-07-03T05:33:58;1.60;;;1.50;;
21420;SDS011;10871;50.144;8.428;2022-07-03T05:36:25;1.70;;;1.60;;
21420;SDS011;10871;50.144;8.428;2022-07-03T05:38:51;2.00;;;1.80;;
21420;SDS011;10871;50.144;8.428;2022-07-03T05:41:36;4.20;;;1.98;;
21420;SDS011;10871;50.144;8.428;2022-07-03T05:44:03;2.38;;;2.00;;
21420;SDS011;10871;50.144;8.428;2022-07-03T05:46:29;2.97;;;1.83;;
21420;SDS011;10871;50.144;8.428;2022-07-03T05:48:56;2.30;;;1.98;;
21420;SDS011;10871;50.144;8.428;2022-07-03T05:51:22;2.80;;;1.63;;
21420;SDS011;10871;50.144;8.428;2022-07-03T05:53:48;1.70;;;1.60;;
21420;SDS011;10871;50.144;8.428;2022-07-03T05:56:15;1.58;;;1.45;;
21420;SDS011;10871;50.144;8.428;2022-07-03T05:58:41;1.70;;;1.60;;
21420;SDS011;10871;50.144;8.428;2022-07-03T06:01:07;1.98;;;1.80;;
21420;SDS011;10871;50.144;8.428;2022-07-03T06:03:34;1.85;;;1.75;;
21420;SDS011;10871;50.144;8.428;2022-07-03T06:06:00;2.65;;;1.70;;
21420;SDS011;10871;50.144;8.428;2022-07-03T06:08:27;2.17;;;1.70;;
21420;SDS011;10871;50.144;8.428;2022-07-03T06:10:53;1.98;;;1.50;;
21420;SDS011;10871;50.144;8.428;2022-07-03T06:13:20;1.70;;;1.60;;
21420;SDS011;10871;50.144;8.428;2022-07-03T06:15:46;1.85;;;1.42;;
21420;SDS011;10871;50.144;8.428;2022-07-03T06:18:12;2.70;;;1.77;;
21420;SDS011;10871;50.144;8.428;2022-07-03T06:20:39;1.70;;;1.60;;
21420;SDS011;10871;50.144;8.428;2022-07-03T06:23:05;3.88;;;1.60;;
21420;SDS011;10871;50.144;8.428;2022-07-03T06:25:44;3.10;;;1.77;;
21420;SDS011;10871;50.144;8.428;2022-07-03T06:28:10;2.95;;;1.80;;
21420;SDS011;10871;50.144;8.428;2022-07-03T06:30:37;3.10;;;1.90;;
21420;SDS011;10871;50.144;8.428;2022-07-03T06:33:03;1.73;;;1.63;;
21420;SDS011;10871;50.144;8.428;2022-07-03T06:35:29;2.55;;;1.70;;
21420;SDS011;10871;50.144;8.428;2022-07-03T06:38:00;2.55;;;1.83;;
21420;SDS011;10871;50.144;8.428;2022-07-03T06:40:26;1.90;;;1.80;;
21420;SDS011;10871;50.144;8.428;2022-07-03T06:42:52;2.78;;;1.75;;
21420;SDS011;10871;50.144;8.428;2022-07-03T06:45:19;3.03;;;1.80;;
21420;SDS011;10871;50.144;8.428;2022-07-03T06:47:59;3.10;;;1.92;;
21420;SDS011;10871;50.144;8.428;2022-07-03T06:50:25;1.80;;;1.70;;
21420;SDS011;10871;50.144;8.428;2022-07-03T06:52:52;3.20;;;1.75;;
21420;SDS011;10871;50.144;8.428;2022-07-03T06:55:18;3.67;;;1.92;;
21420;SDS011;10871;50.144;8.428;2022-07-03T06:57:45;2.55;;;1.90;;
21420;SDS011;10871;50.144;8.428;2022-07-03T07:00:11;3.00;;;1.70;;
21420;SDS011;10871;50.144;8.428;2022-07-03T07:02:38;3.08;;;1.73;;
21420;SDS011;10871;50.144;8.428;2022-07-03T07:05:04;3.35;;;2.00;;
21420;SDS011;10871;50.144;8.428;2022-07-03T07:07:31;4.45;;;1.80;;
21420;SDS011;10871;50.144;8.428;2022-07-03T07:09:57;1.80;;;1.70;;
21420;SDS011;10871;50.144;8.428;2022-07-03T07:12:23;3.17;;;2.25;;
21420;SDS011;10871;50.144;8.428;2022-07-03T07:14:55;4.97;;;2.05;;
21420;SDS011;10871;50.144;8.428;2022-07-03T07:17:21;3.42;;;1.92;;
21420;SDS011;10871;50.144;8.428;2022-07-03T07:19:48;3.17;;;1.70;;
21420;SDS011;10871;50.144;8.428;2022-07-03T07:22:14;1.80;;;1.60;;
21420;SDS011;10871;50.144;8.428;2022-07-03T07:24:40;2.28;;;1.80;;
21420;SDS011;10871;50.144;8.428;2022-07-03T07:27:07;2.00;;;1.90;;
21420;SDS011;10871;50.144;8.428;2022-07-03T07:29:33;1.75;;;1.50;;
21420;SDS011;10871;50.144;8.428;2022-07-03T07:32:00;2.45;;;1.80;;
21420;SDS011;10871;50.144;8.428;2022-07-03T07:34:26;2.20;;;1.63;;
21420;SDS011;10871;50.144;8.428;2022-07-03T07:36:52;3.13;;;1.95;;
21420;SDS011;10871;50.144;8.428;2022-07-03T07:39:19;4.60;;;1.85;;
21420;SDS011;10871;50.144;8.428;2022-07-03T07:41:45;1.65;;;1.55;;
21420;SDS011;10871;50.144;8.428;2022-07-03T07:44:12;1.50;;;1.40;;
21420;SDS011;10871;50.144;8.428;2022-07-03T07:46:44;1.52;;;1.42;;
21420;SDS011;10871;50.144;8.428;2022-07-03T07:49:11;3.58;;;1.90;;
21420;SDS011;10871;50.144;8.428;2022-07-03T07:51:37;3.13;;;1.77;;
21420;SDS011;10871;50.144;8.428;2022-07-03T07:54:04;6.70;;;1.60;;
21420;SDS011;10871;50.144;8.428;2022-07-03T07:56:30;2.42;;;1.45;;
21420;SDS011;10871;50.144;8.428;2022-07-03T07:58:56;3.17;;;1.42;;
21420;SDS011;10871;50.144;8.428;2022-07-03T08:01:23;3.03;;;1.63;;
21420;SDS011;10871;50.144;8.428;2022-07-03T08:04:08;2.15;;;1.60;;
21420;SDS011;10871;50.144;8.428;2022-07-03T08:06:53;2.97;;;1.60;;
21420;SDS011;10871;50.144;8.428;2022-07-03T08:09:19;3.38;;;1.50;;
21420;SDS011;10871;50.144;8.428;2022-07-03T08:11:46;2.55;;;1.60;;
21420;SDS011;10871;50.144;8.428;2022-07-03T08:14:13;2.00;;;1.50;;
21420;SDS011;10871;50.144;8.428;2022-07-03T08:16:39;3.00;;;1.70;;
21420;SDS011;10871;50.144;8.428;2022-07-03T08:19:07;3.17;;;1.60;;
21420;SDS011;10871;50.144;8.428;2022-07-03T08:21:33;2.17;;;1.73;;
21420;SDS011;10871;50.144;8.428;2022-07-03T08:24:00;2.10;;;1.50;;
21420;SDS011;10871;50.144;8.428;2022-07-03T08:26:26;3.08;;;1.67;;
21420;SDS011;10871;50.144;8.428;2022-07-03T08:28:55;3.22;;;1.80;;
21420;SDS011;10871;50.144;8.428;2022-07-03T08:31:21;2.42;;;1.83;;
21420;SDS011;10871;50.144;8.428;2022-07-03T08:33:47;2.55;;;1.90;;
21420;SDS011;10871;50.144;8.428;2022-07-03T08:36:14;3.33;;;1.73;;
21420;SDS011;10871;50.144;8.428;2022-07-03T08:38:40;4.18;;;1.95;;
21420;SDS011;10871;50.144;8.428;2022-07-03T08:41:07;2.80;;;1.80;;
21420;SDS011;10871;50.144;8.428;2022-07-03T08:43:34;1.67;;;1.52;;
21420;SDS011;10871;50.144;8.428;2022-07-03T08:46:01;4.53;;;1.65;;
21420;SDS011;10871;50.144;8.428;2022-07-03T08:48:37;2.90;;;1.60;;
21420;SDS011;10871;50.144;8.428;2022-07-03T08:51:06;2.30;;;1.80;;
21420;SDS011;10871;50.144;8.428;2022-07-03T08:53:32;3.30;;;1.65;;
21420;SDS011;10871;50.144;8.428;2022-07-03T08:55:59;1.92;;;1.40;;
21420;SDS011;10871;50.144;8.428;2022-07-03T08:58:26;3.28;;;1.50;;
21420;SDS011;10871;50.144;8.428;2022-07-03T09:00:59;3.75;;;1.45;;
21420;SDS011;10871;50.144;8.428;2022-07-03T09:03:26;3.85;;;1.63;;
21420;SDS011;10871;50.144;8.428;2022-07-03T09:05:53;2.28;;;1.60;;
21420;SDS011;10871;50.144;8.428;2022-07-03T09:08:19;4.40;;;1.80;;
21420;SDS011;10871;50.144;8.428;2022-07-03T09:10:47;1.88;;;1.60;;
21420;SDS011;10871;50.144;8.428;2022-07-03T09:13:13;2.90;;;1.55;;
21420;SDS011;10871;50.144;8.428;2022-07-03T09:15:40;3.00;;;1.42;;
21420;SDS011;10871;50.144;8.428;2022-07-03T09:18:07;2.17;;;1.50;;
21420;SDS011;10871;50.144;8.428;2022-07-03T09:20:34;2.80;;;1.20;;
21420;SDS011;10871;50.144;8.428;2022-07-03T09:23:17;2.35;;;1.40;;
21420;SDS011;10871;50.144;8.428;2022-07-03T09:25:51;3.90;;;1.50;;
21420;SDS011;10871;50.144;8.428;2022-07-03T09:28:19;1.02;;;0.98;;
21420;SDS011;10871;50.144;8.428;2022-07-03T09:30:58;4.25;;;1.30;;
21420;SDS011;10871;50.144;8.428;2022-07-03T09:33:26;1.73;;;1.27;;
21420;SDS011;10871;50.144;8.428;2022-07-03T09:35:53;2.10;;;1.30;;
21420;SDS011;10871;50.144;8.428;2022-07-03T09:38:20;2.83;;;1.08;;
21420;SDS011;10871;50.144;8.428;2022-07-03T09:43:30;2.90;;;1.10;;
21420;SDS011;10871;50.144;8.428;2022-07-03T09:45:57;1.08;;;0.90;;
21420;SDS011;10871;50.144;8.428;2022-07-03T09:48:25;1.80;;;0.80;;
21420;SDS011;10871;50.144;8.428;2022-07-03T09:51:09;2.67;;;0.90;;
21420;SDS011;10871;50.144;8.428;2022-07-03T09:56:44;2.10;;;0.82;;
21420;SDS011;10871;50.144;8.428;2022-07-03T09:59:10;3.15;;;1.13;;
21420;SDS011;10871;50.144;8.428;2022-07-03T10:01:41;1.80;;;1.00;;
21420;SDS011;10871;50.144;8.428;2022-07-03T10:04:13;1.30;;;0.90;;
21420;SDS011;10871;50.144;8.428;2022-07-03T10:06:56;2.35;;;1.20;;
21420;SDS011;10871;50.144;8.428;2022-07-03T10:09:26;1.20;;;0.93;;
21420;SDS011;10871;50.144;8.428;2022-07-03T10:11:54;3.75;;;1.27;;
21420;SDS011;10871;50.144;8.428;2022-07-03T10:14:23;1.05;;;0.90;;
21420;SDS011;10871;50.144;8.428;2022-07-03T10:16:50;1.98;;;1.02;;
21420;SDS011;10871;50.144;8.428;2022-07-03T10:19:18;4.55;;;1.00;;
21420;SDS011;10871;50.144;8.428;2022-07-03T10:21:55;3.50;;;0.88;;
21420;SDS011;10871;50.144;8.428;2022-07-03T10:24:23;2.45;;;0.93;;
21420;SDS011;10871;50.144;8.428;2022-07-03T10:26:50;5.43;;;1.00;;
21420;SDS011;10871;50.144;8.428;2022-07-03T10:29:17;2.33;;;0.80;;
21420;SDS011;10871;50.144;8.428;2022-07-03T10:31:52;2.88;;;1.00;;
21420;SDS011;10871;50.144;8.428;2022-07-03T10:34:21;2.47;;;0.90;;
21420;SDS011;10871;50.144;8.428;2022-07-03T10:36:57;2.00;;;0.77;;
21420;SDS011;10871;50.144;8.428;2022-07-03T10:42:11;1.23;;;0.90;;
21420;SDS011;10871;50.144;8.428;2022-07-03T10:45:03;1.48;;;0.73;;
21420;SDS011;10871;50.144;8.428;2022-07-03T10:50:13;3.03;;;0.90;;
21420;SDS011;10871;50.144;8.428;2022-07-03T10:52:41;1.88;;;0.80;;
21420;SDS011;10871;50.144;8.428;2022-07-03T10:55:07;2.42;;;0.93;;
21420;SDS011;10871;50.144;8.428;2022-07-03T10:57:38;0.98;;;0.90;;
21420;SDS011;10871;50.144;8.428;2022-07-03T11:00:06;1.55;;;1.02;;
21420;SDS011;10871;50.144;8.428;2022-07-03T11:15:24;2.63;;;1.13;;
21420;SDS011;10871;50.144;8.428;2022-07-03T11:18:24;2.47;;;1.08;;
21420;SDS011;10871;50.144;8.428;2022-07-03T11:28:05;1.27;;;0.93;;
21420;SDS011;10871;50.144;8.428;2022-07-03T11:30:32;1.00;;;0.85;;
21420;SDS011;10871;50.144;8.428;2022-07-03T11:32:59;0.80;;;0.80;;
21420;SDS011;10871;50.144;8.428;2022-07-03T11:38:22;0.70;;;0.70;;
21420;SDS011;10871;50.144;8.428;2022-07-03T11:40:50;2.20;;;0.90;;
21420;SDS011;10871;50.144;8.428;2022-07-03T11:43:17;2.70;;;0.98;;
21420;SDS011;10871;50.144;8.428;2022-07-03T11:45:45;1.38;;;0.80;;
21420;SDS011;10871;50.144;8.428;2022-07-03T11:48:12;1.20;;;0.90;;
21420;SDS011;10871;50.144;8.428;2022-07-03T11:50:39;1.70;;;1.00;;
21420;SDS011;10871;50.144;8.428;2022-07-03T11:55:56;1.27;;;0.90;;
21420;SDS011;10871;50.144;8.428;2022-07-03T11:58:24;2.47;;;0.98;;
21420;SDS011;10871;50.144;8.428;2022-07-03T12:00:50;2.38;;;0.90;;
21420;SDS011;10871;50.144;8.428;2022-07-03T12:03:22;1.70;;;1.00;;
21420;SDS011;10871;50.144;8.428;2022-07-03T12:05:49;1.30;;;1.00;;
21420;SDS011;10871;50.144;8.428;2022-07-03T12:08:21;3.33;;;0.90;;
21420;SDS011;10871;50.144;8.428;2022-07-03T12:10:47;0.95;;;0.85;;
21420;SDS011;10871;50.144;8.428;2022-07-03T12:13:20;1.08;;;0.98;;
21420;SDS011;10871;50.144;8.428;2022-07-03T12:15:47;2.80;;;1.37;;
21420;SDS011;10871;50.144;8.428;2022-07-03T12:18:14;2.08;;;0.90;;
21420;SDS011;10871;50.144;8.428;2022-07-03T12:20:40;3.13;;;1.10;;
21420;SDS011;10871;50.144;8.428;2022-07-03T12:23:07;0.80;;;0.80;;
21420;SDS011;10871;50.144;8.428;2022-07-03T12:25:39;1.98;;;0.90;;
21420;SDS011;10871;50.144;8.428;2022-07-03T12:28:09;3.22;;;0.88;;
21420;SDS011;10871;50.144;8.428;2022-07-03T12:30:36;3.92;;;1.00;;
21420;SDS011;10871;50.144;8.428;2022-07-03T12:33:03;1.58;;;1.00;;
21420;SDS011;10871;50.144;8.428;2022-07-03T12:35:30;1.63;;;0.98;;
21420;SDS011;10871;50.144;8.428;2022-07-03T12:37:56;1.08;;;0.90;;
21420;SDS011;10871;50.144;8.428;2022-07-03T12:40:23;0.80;;;0.80;;
21420;SDS011;10871;50.144;8.428;2022-07-03T12:42:50;1.02;;;0.75;;
21420;SDS011;10871;50.144;8.428;2022-07-03T12:45:18;3.60;;;0.90;;
21420;SDS011;10871;50.144;8.428;2022-07-03T12:47:44;1.02;;;1.00;;
21420;SDS011;10871;50.144;8.428;2022-07-03T12:50:11;1.95;;;0.82;;
21420;SDS011;10871;50.144;8.428;2022-07-03T12:52:51;2.75;;;0.88;;
21420;SDS011;10871;50.144;8.428;2022-07-03T12:55:22;2.35;;;0.98;;
21420;SDS011;10871;50.144;8.428;2022-07-03T12:57:48;1.48;;;0.90;;
21420;SDS011;10871;50.144;8.428;2022-07-03T13:00:43;1.52;;;1.10;;
21420;SDS011;10871;50.144;8.428;2022-07-03T13:03:25;1.10;;;0.70;;
21420;SDS011;10871;50.144;8.428;2022-07-03T13:06:12;4.45;;;0.85;;
21420;SDS011;10871;50.144;8.428;2022-07-03T13:08:39;2.60;;;1.13;;
21420;SDS011;10871;50.144;8.428;2022-07-03T13:11:05;2.33;;;1.00;;
21420;SDS011;10871;50.144;8.428;2022-07-03T13:13:45;1.58;;;1.00;;
21420;SDS011;10871;50.144;8.428;2022-07-03T13:16:27;2.22;;;0.98;;
21420;SDS011;10871;50.144;8.428;2022-07-03T13:19:00;2.58;;;0.80;;
21420;SDS011;10871;50.144;8.428;2022-07-03T13:21:26;1.85;;;1.00;;
21420;SDS011;10871;50.144;8.428;2022-07-03T13:23:58;2.80;;;1.00;;
21420;SDS011;10871;50.144;8.428;2022-07-03T13:26:24;3.33;;;0.90;;
21420;SDS011;10871;50.144;8.428;2022-07-03T13:28:51;1.63;;;0.90;;
21420;SDS011;10871;50.144;8.428;2022-07-03T13:31:17;3.60;;;1.08;;
21420;SDS011;10871;50.144;8.428;2022-07-03T13:33:43;3.70;;;0.93;;
21420;SDS011;10871;50.144;8.428;2022-07-03T13:36:10;1.45;;;0.90;;
21420;SDS011;10871;50.144;8.428;2022-07-03T13:38:36;2.15;;;0.85;;
21420;SDS011;10871;50.144;8.428;2022-07-03T13:41:03;2.55;;;0.95;;
21420;SDS011;10871;50.144;8.428;2022-07-03T13:43:29;1.00;;;0.90;;
21420;SDS011;10871;50.144;8.428;2022-07-03T13:45:55;1.55;;;0.90;;
21420;SDS011;10871;50.144;8.428;2022-07-03T13:48:22;3.08;;;0.90;;
21420;SDS011;10871;50.144;8.428;2022-07-03T13:50:49;3.55;;;0.90;;
21420;SDS011;10871;50.144;8.428;2022-07-03T13:53:15;0.93;;;0.85;;
21420;SDS011;10871;50.144;8.428;2022-07-03T13:55:41;3.22;;;0.80;;
21420;SDS011;10871;50.144;8.428;2022-07-03T13:58:08;1.48;;;0.88;;
21420;SDS011;10871;50.144;8.428;2022-07-03T14:00:34;2.05;;;0.82;;
21420;SDS011;10871;50.144;8.428;2022-07-03T14:03:01;1.33;;;1.00;;
21420;SDS011;10871;50.144;8.428;2022-07-03T14:05:28;3.75;;;1.02;;
21420;SDS011;10871;50.144;8.428;2022-07-03T14:07:55;1.58;;;0.85;;
21420;SDS011;10871;50.144;8.428;2022-07-03T14:10:21;1.30;;;1.00;;
21420;SDS011;10871;50.144;8.428;2022-07-03T14:12:48;1.85;;;1.08;;
21420;SDS011;10871;50.144;8.428;2022-07-03T14:15:14;3.78;;;1.10;;
21420;SDS011;10871;50.144;8.428;2022-07-03T14:17:41;3.28;;;0.95;;
21420;SDS011;10871;50.144;8.428;2022-07-03T14:20:09;2.40;;;0.90;;
21420;SDS011;10871;50.144;8.428;2022-07-03T14:22:36;1.35;;;0.98;;
21420;SDS011;10871;50.144;8.428;2022-07-03T14:25:03;1.08;;;0.90;;
21420;SDS011;10871;50.144;8.428;2022-07-03T14:27:29;1.30;;;0.90;;
21420;SDS011;10871;50.144;8.428;2022-07-03T14:30:14;3.63;;;1.00;;
21420;SDS011;10871;50.144;8.428;2022-07-03T14:32:59;1.10;;;1.00;;
21420;SDS011;10871;50.144;8.428;2022-07-03T14:35:26;2.80;;;0.80;;
21420;SDS011;10871;50.144;8.428;2022-07-03T14:37:52;3.55;;;0.90;;
21420;SDS011;10871;50.144;8.428;2022-07-03T14:40:19;2.83;;;1.00;;
21420;SDS011;10871;50.144;8.428;2022-07-03T14:42:46;1.33;;;1.00;;
21420;SDS011;10871;50.144;8.428;2022-07-03T14:45:12;1.55;;;0.90;;
21420;SDS011;10871;50.144;8.428;2022-07-03T14:47:39;1.98;;;0.80;;
21420;SDS011;10871;50.144;8.428;2022-07-03T14:50:05;1.65;;;1.02;;
21420;SDS011;10871;50.144;8.428;2022-07-03T14:52:32;3.08;;;1.08;;
21420;SDS011;10871;50.144;8.428;2022-07-03T14:54:58;1.85;;;0.80;;
21420;SDS011;10871;50.144;8.428;2022-07-03T14:58:02;1.88;;;1.20;;
21420;SDS011;10871;50.144;8.428;2022-07-03T15:00:18;1.55;;;1.00;;
21420;SDS011;10871;50.144;8.428;2022-07-03T15:05:12;2.05;;;0.90;;
21420;SDS011;10871;50.144;8.428;2022-07-03T15:07:40;2.72;;;0.73;;
21420;SDS011;10871;50.144;8.428;2022-07-03T15:10:08;5.20;;;1.10;;
21420;SDS011;10871;50.144;8.428;2022-07-03T15:12:37;2.88;;;1.00;;
21420;SDS011;10871;50.144;8.428;2022-07-03T15:15:04;1.70;;;1.42;;
21420;SDS011;10871;50.144;8.428;2022-07-03T15:17:34;2.85;;;1.00;;
21420;SDS011;10871;50.144;8.428;2022-07-03T15:20:02;0.80;;;0.80;;
21420;SDS011;10871;50.144;8.428;2022-07-03T15:22:29;4.90;;;0.80;;
21420;SDS011;10871;50.144;8.428;2022-07-03T15:24:56;1.17;;;0.80;;
21420;SDS011;10871;50.144;8.428;2022-07-03T15:27:23;1.15;;;0.85;;
21420;SDS011;10871;50.144;8.428;2022-07-03T15:29:50;3.00;;;0.90;;
21420;SDS011;10871;50.144;8.428;2022-07-03T15:32:17;1.30;;;1.10;;
21420;SDS011;10871;50.144;8.428;2022-07-03T15:34:44;1.35;;;1.00;;
21420;SDS011;10871;50.144;8.428;2022-07-03T15:37:19;2.45;;;0.90;;
21420;SDS011;10871;50.144;8.428;2022-07-03T15:39:54;2.15;;;0.93;;
21420;SDS011;10871;50.144;8.428;2022-07-03T15:47:52;1.13;;;1.02;;
21420;SDS011;10871;50.144;8.428;2022-07-03T15:50:38;2.15;;;1.20;;
21420;SDS011;10871;50.144;8.428;2022-07-03T15:53:07;1.25;;;1.02;;
21420;SDS011;10871;50.144;8.428;2022-07-03T15:55:39;1.00;;;0.90;;
21420;SDS011;10871;50.144;8.428;2022-07-03T15:58:06;1.98;;;1.20;;
21420;SDS011;10871;50.144;8.428;2022-07-03T16:00:38;3.38;;;1.02;;
21420;SDS011;10871;50.144;8.428;2022-07-03T16:05:35;1.60;;;0.90;;